This is the latest recevied weather packets stored in our database for station/object KB3KBR-WX. If no packets are shown the sender has not sent any weather packets the latest 1 day(s).
| Time | Temp. | Humidity | Pressure | Rain* | Wind** | Luminosity | Snow |
|---|---|---|---|---|---|---|---|
| 1778033520 | 11.11° C | 92% | 1006.3 hPa | 3.56 mm | - | - | - |
| 1778033220 | 11.11° C | 91% | 1006 hPa | 3.05 mm | - | - | - |
| 1778032560 | 11.11° C | 90% | 1005.9 hPa | 2.54 mm | - | - | - |
| 1778032260 | 12.22° C | 90% | 1006.7 hPa | 1.02 mm | - | - | - |
| 1778031930 | 12.78° C | 90% | 1005.5 hPa | 0.51 mm | - | - | - |
| 1778031630 | 13.33° C | 92% | 1005.6 hPa | 0 mm | - | - | - |
| 1778031299 | 13.33° C | 92% | 1005.4 hPa | 0 mm | - | - | - |
| 1778031000 | 13.33° C | 92% | 1005.2 hPa | 0 mm | - | - | - |
| 1778030370 | 13.33° C | 92% | 1004.6 hPa | 0 mm | - | - | - |
| 1778030040 | 13.33° C | 91% | 1004.6 hPa | 0 mm | - | - | - |
| 1778029380 | 13.33° C | 91% | 1004.5 hPa | 0.25 mm | - | - | - |
| 1778029080 | 13.33° C | 91% | 1004.6 hPa | 0.25 mm | - | - | - |
| 1778028749 | 13.33° C | 91% | 1004.6 hPa | 0.25 mm | - | - | - |
| 1778028459 | 13.89° C | 91% | 1004.7 hPa | 0.25 mm | - | - | - |
| 1778028423 | 13.89° C | 91% | 1004.7 hPa | 0.25 mm | - | - | - |
| 1778028420 | 13.89° C | 91% | 1004.7 hPa | 0.25 mm | - | - | - |
| 1778028165 | 13.89° C | 91% | 1004.7 hPa | 0.25 mm | - | - | - |
| 1778027790 | 13.89° C | 90% | 1004.6 hPa | 0.25 mm | - | - | - |
| 1778027490 | 13.89° C | 90% | 1004.7 hPa | 0.25 mm | - | - | - |
| 1778027190 | 13.89° C | 90% | 1004.7 hPa | 0.25 mm | - | - | - |
| 1778026860 | 13.89° C | 90% | 1004.8 hPa | 0.25 mm | - | - | - |
| 1778026200 | 14.44° C | 89% | 1004.9 hPa | 0 mm | - | - | - |
| 1778025870 | 14.44° C | 89% | 1005 hPa | 0 mm | - | - | - |
| 1778025240 | 14.44° C | 88% | 1005.1 hPa | 0 mm | - | - | - |
| 1778024310 | 15° C | 87% | 1005.2 hPa | 0 mm | - | - | - |
* Rain latest hour (hover to see other rain measurements)
** Current wind speed in m/s (hover to see current wind gust speed)